Sereno, Missouri
Current Conditions -  °F | °C
As of 10:15 AM on Wednesday 22 Oct 2014 (Local Time) from KFAM Reporting Station
Clear Clear  
Wind Chill: 52°   Ceiling: Unl
Heat Index: 52°   Visibility: 10mi
Dew Point: 46°   Wind: 0mph
Humidity: 82%   Direction: NA
Pressure: 30.33"   Gusts: NA
Location:  37.7127°N, 89.8903°W
Report Text: KFAM 221515Z AUTO 00000KT 10SM CLR 11/08 A3033 RMK AO1
Loading
Personal Weather Stations






























Interactive Weather Map
Tropical Storm Tracking
New forecast layout! Learn more

10-Day Weather Forecast

Advertisements
Track Severe Weather on mobile